sensor_id;sensor_type;location;lat;lon;timestamp;pressure;altitude;pressure_sealevel;temperature;humidity
41636;BME280;27623;51.966;4.602;2022-11-20T00:01:07;63409.88;;;2.13;84.22
41636;BME280;27623;51.966;4.602;2022-11-20T00:03:33;63355.88;;;2.16;84.28
41636;BME280;27623;51.966;4.602;2022-11-20T00:06:01;63365.34;;;2.01;85.30
41636;BME280;27623;51.966;4.602;2022-11-20T00:08:26;63370.72;;;1.99;85.86
41636;BME280;27623;51.966;4.602;2022-11-20T00:10:51;63342.53;;;1.92;85.14
41636;BME280;27623;51.966;4.602;2022-11-20T00:13:17;63372.16;;;1.98;84.74
41636;BME280;27623;51.966;4.602;2022-11-20T00:15:43;63375.25;;;2.06;84.31
41636;BME280;27623;51.966;4.602;2022-11-20T00:18:08;63349.34;;;1.96;85.31
41636;BME280;27623;51.966;4.602;2022-11-20T00:20:34;63360.78;;;1.81;85.28
41636;BME280;27623;51.966;4.602;2022-11-20T00:23:00;63332.81;;;1.83;85.11
41636;BME280;27623;51.966;4.602;2022-11-20T00:25:28;63352.00;;;1.77;84.85
41636;BME280;27623;51.966;4.602;2022-11-20T00:27:53;63324.19;;;1.75;86.58
41636;BME280;27623;51.966;4.602;2022-11-20T00:30:19;63392.91;;;1.87;85.34
41636;BME280;27623;51.966;4.602;2022-11-20T00:32:45;63338.19;;;1.88;85.55
41636;BME280;27623;51.966;4.602;2022-11-20T00:35:11;63374.25;;;1.79;85.95
41636;BME280;27623;51.966;4.602;2022-11-20T00:37:36;63369.22;;;1.79;86.45
41636;BME280;27623;51.966;4.602;2022-11-20T00:40:01;63309.94;;;1.52;88.34
41636;BME280;27623;51.966;4.602;2022-11-20T00:42:27;63308.53;;;1.60;88.88
41636;BME280;27623;51.966;4.602;2022-11-20T00:44:53;63368.69;;;1.79;88.08
41636;BME280;27623;51.966;4.602;2022-11-20T00:47:19;63329.69;;;1.61;88.67
41636;BME280;27623;51.966;4.602;2022-11-20T00:49:44;63300.69;;;1.29;90.08
41636;BME280;27623;51.966;4.602;2022-11-20T00:52:13;63300.97;;;1.53;91.67
41636;BME280;27623;51.966;4.602;2022-11-20T00:54:38;63321.53;;;1.39;91.22
41636;BME280;27623;51.966;4.602;2022-11-20T00:57:04;63323.00;;;1.52;91.25
41636;BME280;27623;51.966;4.602;2022-11-20T00:59:29;63338.13;;;1.59;90.34
41636;BME280;27623;51.966;4.602;2022-11-20T01:01:55;63336.16;;;1.60;90.49
41636;BME280;27623;51.966;4.602;2022-11-20T01:04:20;63329.38;;;1.30;90.70
41636;BME280;27623;51.966;4.602;2022-11-20T01:06:46;63313.81;;;1.36;91.73
41636;BME280;27623;51.966;4.602;2022-11-20T01:09:13;63315.94;;;1.31;91.97
41636;BME280;27623;51.966;4.602;2022-11-20T01:11:42;63316.53;;;1.46;91.87
41636;BME280;27623;51.966;4.602;2022-11-20T01:14:13;63324.78;;;1.49;91.08
41636;BME280;27623;51.966;4.602;2022-11-20T01:16:44;63308.47;;;1.46;91.49
41636;BME280;27623;51.966;4.602;2022-11-20T01:19:12;63311.84;;;1.37;91.96
41636;BME280;27623;51.966;4.602;2022-11-20T01:21:41;63284.22;;;1.30;93.17
41636;BME280;27623;51.966;4.602;2022-11-20T01:24:10;63335.41;;;1.57;91.28
41636;BME280;27623;51.966;4.602;2022-11-20T01:26:38;63319.00;;;1.32;92.07
41636;BME280;27623;51.966;4.602;2022-11-20T01:29:04;63335.41;;;1.57;90.20
41636;BME280;27623;51.966;4.602;2022-11-20T01:31:33;63350.50;;;1.64;88.43
41636;BME280;27623;51.966;4.602;2022-11-20T01:34:01;63339.16;;;1.53;88.34
41636;BME280;27623;51.966;4.602;2022-11-20T01:36:29;63320.88;;;1.57;88.64
41636;BME280;27623;51.966;4.602;2022-11-20T01:39:00;63331.63;;;1.53;88.79
41636;BME280;27623;51.966;4.602;2022-11-20T01:41:29;63319.75;;;1.42;89.58
41636;BME280;27623;51.966;4.602;2022-11-20T01:44:15;63334.34;;;1.56;89.16
41636;BME280;27623;51.966;4.602;2022-11-20T01:46:50;63299.50;;;1.47;87.69
41636;BME280;27623;51.966;4.602;2022-11-20T01:49:23;63265.56;;;1.22;88.77
41636;BME280;27623;51.966;4.602;2022-11-20T01:51:53;63285.66;;;1.36;88.86
41636;BME280;27623;51.966;4.602;2022-11-20T01:54:28;63295.47;;;1.19;89.64
41636;BME280;27623;51.966;4.602;2022-11-20T01:56:59;63306.09;;;1.34;88.75
41636;BME280;27623;51.966;4.602;2022-11-20T01:59:27;63297.69;;;1.35;88.78
41636;BME280;27623;51.966;4.602;2022-11-20T02:01:54;63300.56;;;1.41;88.63
41636;BME280;27623;51.966;4.602;2022-11-20T02:04:20;63290.66;;;1.29;87.88
41636;BME280;27623;51.966;4.602;2022-11-20T02:06:57;63299.72;;;1.09;89.93
41636;BME280;27623;51.966;4.602;2022-11-20T02:09:24;63247.28;;;0.79;92.15
41636;BME280;27623;51.966;4.602;2022-11-20T02:11:49;63214.34;;;0.81;92.70
41636;BME280;27623;51.966;4.602;2022-11-20T02:14:15;63263.44;;;0.87;93.49
41636;BME280;27623;51.966;4.602;2022-11-20T02:16:45;63237.63;;;0.84;93.29
41636;BME280;27623;51.966;4.602;2022-11-20T02:19:31;63272.25;;;0.97;92.82
41636;BME280;27623;51.966;4.602;2022-11-20T02:22:05;63277.88;;;1.12;93.00
41636;BME280;27623;51.966;4.602;2022-11-20T02:24:33;63247.38;;;1.00;92.96
41636;BME280;27623;51.966;4.602;2022-11-20T02:27:01;63267.38;;;0.86;94.86
41636;BME280;27623;51.966;4.602;2022-11-20T02:29:37;63293.63;;;1.08;93.47
41636;BME280;27623;51.966;4.602;2022-11-20T02:32:20;63244.13;;;0.97;93.32
41636;BME280;27623;51.966;4.602;2022-11-20T02:34:46;63256.09;;;0.89;95.38
41636;BME280;27623;51.966;4.602;2022-11-20T02:37:11;63272.84;;;1.12;94.69
41636;BME280;27623;51.966;4.602;2022-11-20T02:39:37;63241.09;;;0.96;94.84
41636;BME280;27623;51.966;4.602;2022-11-20T02:42:02;63273.00;;;1.00;93.70
41636;BME280;27623;51.966;4.602;2022-11-20T02:44:29;63241.94;;;0.88;94.26
41636;BME280;27623;51.966;4.602;2022-11-20T02:46:57;63275.88;;;1.06;93.06
41636;BME280;27623;51.966;4.602;2022-11-20T02:49:23;63314.25;;;1.16;92.49
41636;BME280;27623;51.966;4.602;2022-11-20T02:51:48;63296.84;;;1.11;92.85
41636;BME280;27623;51.966;4.602;2022-11-20T02:54:14;63268.47;;;0.94;93.80
41636;BME280;27623;51.966;4.602;2022-11-20T02:56:39;63263.47;;;0.94;95.00
41636;BME280;27623;51.966;4.602;2022-11-20T02:59:05;63252.31;;;0.86;96.35
41636;BME280;27623;51.966;4.602;2022-11-20T03:01:30;63240.91;;;0.94;95.26
41636;BME280;27623;51.966;4.602;2022-11-20T03:03:56;63259.19;;;0.97;95.02
41636;BME280;27623;51.966;4.602;2022-11-20T03:06:22;63237.81;;;0.79;95.24
41636;BME280;27623;51.966;4.602;2022-11-20T03:08:47;63278.03;;;1.08;93.73
41636;BME280;27623;51.966;4.602;2022-11-20T03:11:14;63224.56;;;0.83;95.51
41636;BME280;27623;51.966;4.602;2022-11-20T03:13:39;63234.78;;;0.86;95.95
41636;BME280;27623;51.966;4.602;2022-11-20T03:16:25;63227.88;;;0.67;95.67
41636;BME280;27623;51.966;4.602;2022-11-20T03:18:52;63200.78;;;0.47;97.15
41636;BME280;27623;51.966;4.602;2022-11-20T03:21:17;63276.19;;;0.96;95.99
41636;BME280;27623;51.966;4.602;2022-11-20T03:23:45;63251.28;;;0.92;93.89
41636;BME280;27623;51.966;4.602;2022-11-20T03:26:14;63262.97;;;1.08;93.77
41636;BME280;27623;51.966;4.602;2022-11-20T03:28:41;63256.78;;;0.78;94.99
41636;BME280;27623;51.966;4.602;2022-11-20T03:31:12;63250.94;;;0.94;95.75
41636;BME280;27623;51.966;4.602;2022-11-20T03:33:39;63234.56;;;0.76;96.58
41636;BME280;27623;51.966;4.602;2022-11-20T03:36:10;63220.25;;;0.86;95.49
41636;BME280;27623;51.966;4.602;2022-11-20T03:38:36;63238.09;;;0.70;96.80
41636;BME280;27623;51.966;4.602;2022-11-20T03:41:04;63248.19;;;0.77;97.40
41636;BME280;27623;51.966;4.602;2022-11-20T03:43:31;63281.84;;;0.78;94.85
41636;BME280;27623;51.966;4.602;2022-11-20T03:45:57;63290.00;;;1.00;94.24
41636;BME280;27623;51.966;4.602;2022-11-20T03:48:22;63250.91;;;0.87;94.48
41636;BME280;27623;51.966;4.602;2022-11-20T03:50:48;63324.59;;;1.07;92.56
41636;BME280;27623;51.966;4.602;2022-11-20T03:53:15;63231.34;;;0.80;93.45
41636;BME280;27623;51.966;4.602;2022-11-20T03:55:40;63220.91;;;0.68;95.05
41636;BME280;27623;51.966;4.602;2022-11-20T03:58:09;63236.53;;;0.76;94.57
41636;BME280;27623;51.966;4.602;2022-11-20T04:00:35;63253.91;;;0.80;95.79
41636;BME280;27623;51.966;4.602;2022-11-20T04:03:01;63265.75;;;0.84;94.58
41636;BME280;27623;51.966;4.602;2022-11-20T04:05:27;63256.25;;;0.78;94.08
41636;BME280;27623;51.966;4.602;2022-11-20T04:07:53;63252.03;;;1.02;92.78
41636;BME280;27623;51.966;4.602;2022-11-20T04:10:19;63243.41;;;0.94;92.87
41636;BME280;27623;51.966;4.602;2022-11-20T04:12:44;63230.19;;;0.58;93.72
41636;BME280;27623;51.966;4.602;2022-11-20T04:15:10;63238.97;;;0.61;94.17
41636;BME280;27623;51.966;4.602;2022-11-20T04:17:35;63215.16;;;0.65;93.63
41636;BME280;27623;51.966;4.602;2022-11-20T04:20:01;63218.00;;;0.56;94.12
41636;BME280;27623;51.966;4.602;2022-11-20T04:22:29;63237.00;;;0.62;93.26
41636;BME280;27623;51.966;4.602;2022-11-20T04:24:54;63229.91;;;0.74;93.74
41636;BME280;27623;51.966;4.602;2022-11-20T04:27:20;63226.06;;;0.56;93.20
41636;BME280;27623;51.966;4.602;2022-11-20T04:29:46;63241.69;;;0.71;92.96
41636;BME280;27623;51.966;4.602;2022-11-20T04:32:12;63213.97;;;0.76;93.31
41636;BME280;27623;51.966;4.602;2022-11-20T04:34:39;63249.38;;;0.66;93.16
41636;BME280;27623;51.966;4.602;2022-11-20T04:37:05;63214.97;;;0.62;93.41
41636;BME280;27623;51.966;4.602;2022-11-20T04:39:32;63225.88;;;0.54;94.04
41636;BME280;27623;51.966;4.602;2022-11-20T04:41:57;63184.84;;;0.41;95.02
41636;BME280;27623;51.966;4.602;2022-11-20T04:44:41;63237.34;;;0.60;93.84
41636;BME280;27623;51.966;4.602;2022-11-20T04:47:06;63213.59;;;0.71;93.72
41636;BME280;27623;51.966;4.602;2022-11-20T04:49:32;63247.41;;;0.67;93.62
41636;BME280;27623;51.966;4.602;2022-11-20T04:51:58;63213.03;;;0.70;93.60
41636;BME280;27623;51.966;4.602;2022-11-20T04:54:24;63220.25;;;0.79;93.15
41636;BME280;27623;51.966;4.602;2022-11-20T04:56:52;63229.31;;;0.66;93.02
41636;BME280;27623;51.966;4.602;2022-11-20T04:59:17;63232.22;;;0.72;93.66
41636;BME280;27623;51.966;4.602;2022-11-20T05:01:43;63208.72;;;0.66;93.70
41636;BME280;27623;51.966;4.602;2022-11-20T05:04:08;63233.78;;;0.66;93.90
41636;BME280;27623;51.966;4.602;2022-11-20T05:06:34;63216.44;;;0.68;93.40
41636;BME280;27623;51.966;4.602;2022-11-20T05:09:00;63257.16;;;0.50;93.54
41636;BME280;27623;51.966;4.602;2022-11-20T05:11:26;63200.31;;;0.60;93.91
41636;BME280;27623;51.966;4.602;2022-11-20T05:13:54;63246.50;;;0.61;93.97
41636;BME280;27623;51.966;4.602;2022-11-20T05:16:23;63224.22;;;0.45;94.92
41636;BME280;27623;51.966;4.602;2022-11-20T05:18:50;63208.16;;;0.58;94.89
41636;BME280;27623;51.966;4.602;2022-11-20T05:21:16;63269.75;;;0.57;94.54
41636;BME280;27623;51.966;4.602;2022-11-20T05:23:43;63238.81;;;0.66;93.64
41636;BME280;27623;51.966;4.602;2022-11-20T05:26:14;63222.13;;;0.57;93.37
41636;BME280;27623;51.966;4.602;2022-11-20T05:28:40;63201.19;;;0.59;93.05
41636;BME280;27623;51.966;4.602;2022-11-20T05:31:14;63174.94;;;0.29;95.24
41636;BME280;27623;51.966;4.602;2022-11-20T05:33:41;63195.50;;;0.30;96.33
41636;BME280;27623;51.966;4.602;2022-11-20T05:36:07;63198.25;;;0.47;95.21
41636;BME280;27623;51.966;4.602;2022-11-20T05:38:33;63211.78;;;0.66;94.21
41636;BME280;27623;51.966;4.602;2022-11-20T05:43:35;63182.91;;;0.56;94.54
41636;BME280;27623;51.966;4.602;2022-11-20T05:46:01;63220.09;;;0.44;94.50
41636;BME280;27623;51.966;4.602;2022-11-20T05:48:27;63185.63;;;0.58;94.28
41636;BME280;27623;51.966;4.602;2022-11-20T05:50:52;63240.03;;;0.62;94.67
41636;BME280;27623;51.966;4.602;2022-11-20T05:53:18;63219.28;;;0.59;95.11
41636;BME280;27623;51.966;4.602;2022-11-20T05:55:43;63207.09;;;0.57;95.14
41636;BME280;27623;51.966;4.602;2022-11-20T05:58:09;63250.72;;;0.51;95.08
41636;BME280;27623;51.966;4.602;2022-11-20T06:00:34;63230.75;;;0.65;95.73
41636;BME280;27623;51.966;4.602;2022-11-20T06:03:00;63208.03;;;0.70;95.51
41636;BME280;27623;51.966;4.602;2022-11-20T06:05:26;63227.88;;;0.67;95.57
41636;BME280;27623;51.966;4.602;2022-11-20T06:07:51;63222.31;;;0.60;95.95
41636;BME280;27623;51.966;4.602;2022-11-20T06:10:17;63219.09;;;0.57;97.07
41636;BME280;27623;51.966;4.602;2022-11-20T06:12:43;63239.47;;;0.55;97.39
41636;BME280;27623;51.966;4.602;2022-11-20T06:15:09;63230.72;;;0.58;97.42
41636;BME280;27623;51.966;4.602;2022-11-20T06:17:35;63193.78;;;0.47;97.33
41636;BME280;27623;51.966;4.602;2022-11-20T06:20:01;63216.06;;;0.63;97.04
41636;BME280;27623;51.966;4.602;2022-11-20T06:22:26;63218.38;;;0.61;97.19
41636;BME280;27623;51.966;4.602;2022-11-20T06:24:51;63267.25;;;0.64;97.24
41636;BME280;27623;51.966;4.602;2022-11-20T06:27:17;63209.25;;;0.66;96.49
41636;BME280;27623;51.966;4.602;2022-11-20T06:29:43;63225.88;;;0.54;96.55
41636;BME280;27623;51.966;4.602;2022-11-20T06:32:09;63213.19;;;0.65;96.99
41636;BME280;27623;51.966;4.602;2022-11-20T06:34:35;63207.28;;;0.60;97.46
41636;BME280;27623;51.966;4.602;2022-11-20T06:37:01;63251.91;;;0.74;96.86
41636;BME280;27623;51.966;4.602;2022-11-20T06:39:26;63207.34;;;0.74;97.04
41636;BME280;27623;51.966;4.602;2022-11-20T06:41:52;63237.03;;;0.69;97.09
41636;BME280;27623;51.966;4.602;2022-11-20T06:44:18;63217.31;;;0.67;96.81
41636;BME280;27623;51.966;4.602;2022-11-20T06:46:44;63240.56;;;0.63;97.18
41636;BME280;27623;51.966;4.602;2022-11-20T06:49:10;63204.25;;;0.59;98.76
41636;BME280;27623;51.966;4.602;2022-11-20T06:51:36;63217.84;;;0.60;98.16
41636;BME280;27623;51.966;4.602;2022-11-20T06:54:02;63194.69;;;0.46;100.00
41636;BME280;27623;51.966;4.602;2022-11-20T06:56:28;63225.78;;;0.73;99.20
41636;BME280;27623;51.966;4.602;2022-11-20T06:58:54;63224.00;;;0.76;98.24
41636;BME280;27623;51.966;4.602;2022-11-20T07:01:19;63233.31;;;0.80;98.79
41636;BME280;27623;51.966;4.602;2022-11-20T07:03:45;63237.06;;;0.76;98.49
41636;BME280;27623;51.966;4.602;2022-11-20T07:06:13;63222.72;;;0.72;99.61
41636;BME280;27623;51.966;4.602;2022-11-20T07:08:38;63236.94;;;0.88;98.97
41636;BME280;27623;51.966;4.602;2022-11-20T07:11:06;63252.19;;;0.97;98.56
41636;BME280;27623;51.966;4.602;2022-11-20T07:13:32;63217.22;;;0.79;99.38
41636;BME280;27623;51.966;4.602;2022-11-20T07:16:03;63202.81;;;0.60;100.00
41636;BME280;27623;51.966;4.602;2022-11-20T07:18:29;63237.19;;;0.64;100.00
41636;BME280;27623;51.966;4.602;2022-11-20T07:20:54;63236.16;;;0.71;100.00
41636;BME280;27623;51.966;4.602;2022-11-20T07:23:20;63217.22;;;0.46;100.00
41636;BME280;27623;51.966;4.602;2022-11-20T07:25:45;63233.78;;;0.66;100.00
41636;BME280;27623;51.966;4.602;2022-11-20T07:28:10;63177.91;;;0.16;100.00
41636;BME280;27623;51.966;4.602;2022-11-20T07:30:36;63200.03;;;0.44;100.00
41636;BME280;27623;51.966;4.602;2022-11-20T07:33:01;63197.94;;;0.56;100.00
41636;BME280;27623;51.966;4.602;2022-11-20T07:35:27;63211.38;;;0.54;100.00
41636;BME280;27623;51.966;4.602;2022-11-20T07:37:53;63205.44;;;0.49;100.00
41636;BME280;27623;51.966;4.602;2022-11-20T07:40:21;63219.47;;;0.69;100.00
41636;BME280;27623;51.966;4.602;2022-11-20T07:42:54;63254.06;;;0.76;100.00
41636;BME280;27623;51.966;4.602;2022-11-20T07:45:22;63242.28;;;0.79;100.00
41636;BME280;27623;51.966;4.602;2022-11-20T07:47:47;63233.44;;;0.61;100.00
41636;BME280;27623;51.966;4.602;2022-11-20T07:50:13;63205.66;;;0.58;100.00
41636;BME280;27623;51.966;4.602;2022-11-20T07:52:39;63213.97;;;0.36;100.00
41636;BME280;27623;51.966;4.602;2022-11-20T07:55:06;63240.56;;;0.56;100.00
41636;BME280;27623;51.966;4.602;2022-11-20T07:57:31;63221.81;;;0.66;100.00
41636;BME280;27623;51.966;4.602;2022-11-20T07:59:57;63233.06;;;0.63;100.00
41636;BME280;27623;51.966;4.602;2022-11-20T08:02:23;63202.59;;;0.51;100.00
41636;BME280;27623;51.966;4.602;2022-11-20T08:04:51;63171.69;;;0.19;100.00
41636;BME280;27623;51.966;4.602;2022-11-20T08:07:17;63189.63;;;0.31;100.00
41636;BME280;27623;51.966;4.602;2022-11-20T08:09:43;63191.72;;;0.26;100.00
41636;BME280;27623;51.966;4.602;2022-11-20T08:12:14;63211.84;;;0.41;100.00
41636;BME280;27623;51.966;4.602;2022-11-20T08:15:01;63213.53;;;0.56;100.00
41636;BME280;27623;51.966;4.602;2022-11-20T08:17:26;63267.03;;;0.88;100.00
41636;BME280;27623;51.966;4.602;2022-11-20T08:19:51;63240.41;;;1.00;100.00
41636;BME280;27623;51.966;4.602;2022-11-20T08:22:17;63283.56;;;1.01;100.00
41636;BME280;27623;51.966;4.602;2022-11-20T08:24:42;63276.19;;;0.96;100.00
41636;BME280;27623;51.966;4.602;2022-11-20T08:27:08;63234.75;;;0.79;100.00
41636;BME280;27623;51.966;4.602;2022-11-20T08:29:33;63224.28;;;0.59;100.00
41636;BME280;27623;51.966;4.602;2022-11-20T08:31:59;63259.03;;;0.61;100.00
41636;BME280;27623;51.966;4.602;2022-11-20T08:34:24;63211.56;;;0.57;100.00
41636;BME280;27623;51.966;4.602;2022-11-20T08:36:52;63235.78;;;0.73;100.00
41636;BME280;27623;51.966;4.602;2022-11-20T08:39:17;63210.31;;;0.60;100.00
41636;BME280;27623;51.966;4.602;2022-11-20T08:41:45;63301.38;;;0.85;100.00
41636;BME280;27623;51.966;4.602;2022-11-20T08:44:10;63240.56;;;0.63;100.00
41636;BME280;27623;51.966;4.602;2022-11-20T08:46:38;63212.66;;;0.65;100.00
41636;BME280;27623;51.966;4.602;2022-11-20T08:49:05;63246.88;;;0.66;100.00
41636;BME280;27623;51.966;4.602;2022-11-20T08:51:31;63253.19;;;0.77;100.00
41636;BME280;27623;51.966;4.602;2022-11-20T08:53:57;63256.09;;;0.82;100.00
41636;BME280;27623;51.966;4.602;2022-11-20T08:56:22;63236.19;;;0.78;100.00
41636;BME280;27623;51.966;4.602;2022-11-20T08:58:50;63272.91;;;1.26;100.00
41636;BME280;27623;51.966;4.602;2022-11-20T09:01:16;63283.47;;;1.27;100.00
41636;BME280;27623;51.966;4.602;2022-11-20T09:03:42;63292.44;;;1.26;100.00
41636;BME280;27623;51.966;4.602;2022-11-20T09:06:07;63301.59;;;1.27;100.00
41636;BME280;27623;51.966;4.602;2022-11-20T09:08:33;63272.00;;;1.21;100.00
41636;BME280;27623;51.966;4.602;2022-11-20T09:10:59;63263.38;;;1.13;100.00
41636;BME280;27623;51.966;4.602;2022-11-20T09:13:29;63266.94;;;1.14;100.00
41636;BME280;27623;51.966;4.602;2022-11-20T09:16:01;63335.72;;;1.41;100.00
41636;BME280;27623;51.966;4.602;2022-11-20T09:18:27;63305.72;;;1.29;100.00
41636;BME280;27623;51.966;4.602;2022-11-20T09:20:57;63357.81;;;1.54;100.00
41636;BME280;27623;51.966;4.602;2022-11-20T09:23:23;63340.44;;;1.57;100.00
41636;BME280;27623;51.966;4.602;2022-11-20T09:25:49;63275.97;;;1.34;100.00
41636;BME280;27623;51.966;4.602;2022-11-20T09:28:15;63325.50;;;1.45;100.00
41636;BME280;27623;51.966;4.602;2022-11-20T09:30:41;63338.06;;;1.45;100.00
41636;BME280;27623;51.966;4.602;2022-11-20T09:33:07;63319.44;;;1.51;100.00
41636;BME280;27623;51.966;4.602;2022-11-20T09:35:33;63331.25;;;1.48;100.00
41636;BME280;27623;51.966;4.602;2022-11-20T09:38:07;63324.94;;;1.37;100.00
41636;BME280;27623;51.966;4.602;2022-11-20T09:40:34;63325.28;;;1.35;100.00
41636;BME280;27623;51.966;4.602;2022-11-20T09:48:45;63300.72;;;1.36;100.00
41636;BME280;27623;51.966;4.602;2022-11-20T09:54:18;63272.44;;;1.40;100.00
41636;BME280;27623;51.966;4.602;2022-11-20T09:56:48;63304.53;;;1.47;100.00
41636;BME280;27623;51.966;4.602;2022-11-20T09:59:29;63334.13;;;1.53;100.00
41636;BME280;27623;51.966;4.602;2022-11-20T10:01:58;63334.16;;;1.60;100.00
41636;BME280;27623;51.966;4.602;2022-11-20T10:04:28;63300.66;;;1.62;100.00
41636;BME280;27623;51.966;4.602;2022-11-20T10:07:20;63280.56;;;1.62;100.00
41636;BME280;27623;51.966;4.602;2022-11-20T10:09:53;63346.78;;;1.75;100.00
41636;BME280;27623;51.966;4.602;2022-11-20T10:12:40;63345.09;;;1.59;100.00
41636;BME280;27623;51.966;4.602;2022-11-20T10:15:34;63305.84;;;1.64;100.00
41636;BME280;27623;51.966;4.602;2022-11-20T10:18:30;63348.66;;;1.53;100.00
41636;BME280;27623;51.966;4.602;2022-11-20T10:29:37;63307.81;;;1.64;100.00
41636;BME280;27623;51.966;4.602;2022-11-20T10:32:18;63341.00;;;1.64;100.00
41636;BME280;27623;51.966;4.602;2022-11-20T10:37:22;63341.56;;;1.72;100.00
41636;BME280;27623;51.966;4.602;2022-11-20T10:43:03;63364.53;;;1.77;100.00
41636;BME280;27623;51.966;4.602;2022-11-20T10:45:39;63330.44;;;1.64;100.00
41636;BME280;27623;51.966;4.602;2022-11-20T10:48:27;63331.53;;;1.72;100.00
41636;BME280;27623;51.966;4.602;2022-11-20T10:56:17;63341.25;;;1.81;100.00
41636;BME280;27623;51.966;4.602;2022-11-20T10:59:00;63355.63;;;1.85;100.00
41636;BME280;27623;51.966;4.602;2022-11-20T11:01:27;63371.56;;;1.84;100.00
41636;BME280;27623;51.966;4.602;2022-11-20T11:03:55;63361.03;;;1.97;100.00
41636;BME280;27623;51.966;4.602;2022-11-20T11:08:50;63374.84;;;2.01;100.00
41636;BME280;27623;51.966;4.602;2022-11-20T11:13:45;63379.56;;;2.17;100.00
41636;BME280;27623;51.966;4.602;2022-11-20T11:16:26;63376.16;;;2.12;100.00
41636;BME280;27623;51.966;4.602;2022-11-20T11:19:06;63393.94;;;2.21;100.00
41636;BME280;27623;51.966;4.602;2022-11-20T11:21:32;63367.56;;;2.18;100.00
41636;BME280;27623;51.966;4.602;2022-11-20T11:24:01;63410.31;;;2.32;100.00
41636;BME280;27623;51.966;4.602;2022-11-20T11:26:27;63428.47;;;2.39;100.00
41636;BME280;27623;51.966;4.602;2022-11-20T11:29:00;63410.22;;;2.58;100.00
41636;BME280;27623;51.966;4.602;2022-11-20T11:31:31;63456.31;;;2.42;100.00
41636;BME280;27623;51.966;4.602;2022-11-20T11:34:08;63421.16;;;2.49;100.00
41636;BME280;27623;51.966;4.602;2022-11-20T11:36:36;63450.06;;;2.53;100.00
41636;BME280;27623;51.966;4.602;2022-11-20T11:39:05;63425.47;;;2.46;100.00
41636;BME280;27623;51.966;4.602;2022-11-20T11:41:33;63427.78;;;2.51;100.00
41636;BME280;27623;51.966;4.602;2022-11-20T11:44:26;63438.56;;;2.54;100.00
41636;BME280;27623;51.966;4.602;2022-11-20T11:47:29;63444.19;;;2.61;100.00
41636;BME280;27623;51.966;4.602;2022-11-20T11:55:09;63514.38;;;2.99;100.00
41636;BME280;27623;51.966;4.602;2022-11-20T11:57:43;63468.97;;;2.70;100.00
41636;BME280;27623;51.966;4.602;2022-11-20T12:00:16;63484.16;;;2.92;100.00
41636;BME280;27623;51.966;4.602;2022-11-20T12:05:24;63489.56;;;2.97;100.00
41636;BME280;27623;51.966;4.602;2022-11-20T12:08:12;63465.13;;;3.00;100.00
41636;BME280;27623;51.966;4.602;2022-11-20T12:15:51;63464.22;;;2.94;100.00
41636;BME280;27623;51.966;4.602;2022-11-20T12:18:20;63463.31;;;2.96;100.00
41636;BME280;27623;51.966;4.602;2022-11-20T12:34:41;63494.47;;;3.16;100.00
41636;BME280;27623;51.966;4.602;2022-11-20T12:37:18;63538.69;;;3.15;100.00
41636;BME280;27623;51.966;4.602;2022-11-20T12:39:49;63477.94;;;3.17;100.00
41636;BME280;27623;51.966;4.602;2022-11-20T12:42:23;63527.19;;;3.16;100.00
41636;BME280;27623;51.966;4.602;2022-11-20T12:45:34;63487.63;;;3.12;100.00
41636;BME280;27623;51.966;4.602;2022-11-20T12:48:38;63535.63;;;3.14;100.00
41636;BME280;27623;51.966;4.602;2022-11-20T12:59:28;63559.56;;;3.18;100.00
41636;BME280;27623;51.966;4.602;2022-11-20T13:02:09;63504.19;;;3.18;100.00
41636;BME280;27623;51.966;4.602;2022-11-20T13:07:26;63542.00;;;3.39;100.00
41636;BME280;27623;51.966;4.602;2022-11-20T13:09:55;63505.66;;;3.31;100.00
41636;BME280;27623;51.966;4.602;2022-11-20T13:12:31;63488.19;;;3.19;100.00
41636;BME280;27623;51.966;4.602;2022-11-20T13:15:18;63521.81;;;3.18;100.00
41636;BME280;27623;51.966;4.602;2022-11-20T13:17:59;63511.91;;;3.20;100.00
41636;BME280;27623;51.966;4.602;2022-11-20T13:20:26;63517.84;;;3.19;100.00
41636;BME280;27623;51.966;4.602;2022-11-20T13:22:53;63520.41;;;3.26;100.00
41636;BME280;27623;51.966;4.602;2022-11-20T13:25:36;63528.13;;;3.28;100.00
41636;BME280;27623;51.966;4.602;2022-11-20T13:28:28;63484.97;;;3.23;100.00
41636;BME280;27623;51.966;4.602;2022-11-20T13:30:56;63550.13;;;3.47;100.00
41636;BME280;27623;51.966;4.602;2022-11-20T13:33:31;63526.66;;;3.22;100.00
41636;BME280;27623;51.966;4.602;2022-11-20T13:36:03;63507.09;;;3.30;100.00
41636;BME280;27623;51.966;4.602;2022-11-20T13:38:43;63565.38;;;3.35;100.00
41636;BME280;27623;51.966;4.602;2022-11-20T13:41:24;63527.22;;;3.23;100.00
41636;BME280;27623;51.966;4.602;2022-11-20T13:46:39;63515.53;;;3.28;100.00
41636;BME280;27623;51.966;4.602;2022-11-20T13:49:10;63554.59;;;3.32;100.00
41636;BME280;27623;51.966;4.602;2022-11-20T13:51:44;63510.31;;;3.26;100.00
41636;BME280;27623;51.966;4.602;2022-11-20T13:57:04;63517.69;;;3.23;100.00
41636;BME280;27623;51.966;4.602;2022-11-20T14:02:18;63507.41;;;3.14;100.00
41636;BME280;27623;51.966;4.602;2022-11-20T14:04:47;63530.97;;;3.19;100.00
41636;BME280;27623;51.966;4.602;2022-11-20T14:07:15;63517.53;;;3.28;100.00
41636;BME280;27623;51.966;4.602;2022-11-20T14:09:50;63524.91;;;3.32;100.00
41636;BME280;27623;51.966;4.602;2022-11-20T14:12:20;63542.16;;;3.34;100.00
41636;BME280;27623;51.966;4.602;2022-11-20T14:14:51;63538.06;;;3.47;100.00
41636;BME280;27623;51.966;4.602;2022-11-20T14:17:19;63526.16;;;3.36;100.00
41636;BME280;27623;51.966;4.602;2022-11-20T14:19:47;63534.66;;;3.49;100.00
41636;BME280;27623;51.966;4.602;2022-11-20T14:22:24;63580.19;;;3.58;100.00
41636;BME280;27623;51.966;4.602;2022-11-20T14:27:36;63532.69;;;3.49;100.00
41636;BME280;27623;51.966;4.602;2022-11-20T14:30:06;63562.19;;;3.46;100.00
41636;BME280;27623;51.966;4.602;2022-11-20T14:32:37;63546.72;;;3.48;100.00
41636;BME280;27623;51.966;4.602;2022-11-20T14:35:08;63541.88;;;3.51;100.00
41636;BME280;27623;51.966;4.602;2022-11-20T14:37:37;63543.31;;;3.50;100.00
41636;BME280;27623;51.966;4.602;2022-11-20T14:40:21;63500.66;;;3.45;100.00